<?xml version="1.0" encoding="UTF-8" standalone="no" ?>
<gpx xmlns="http://www.topografix.com/GPX/1/1" xmlns:xsi="http://www.w3.org/2001/XMLSchema-instance" xsi:schemaLocation="http://www.topografix.com/GPX/1/1 http://www.topografix.com/GPX/1/1/gpx.xsd" version="1.1" creator="VisuGPX - https://www.visugpx.com">
  <metadata>
    <name>Parcours Test DH bleue - Trail Running Portes du Soleil</name>
  </metadata>
  <trk>
    <name><![CDATA[Parcours Test DH bleue - Trail Running Portes du Soleil]]></name>
    <extensions>
      <line xmlns="http://www.topografix.com/GPX/gpx_style/0/2">
        <color>0000FF</color>
        <width>4</width>
      </line>
    </extensions>
    <trkseg>
      <trkpt lat="46.15681" lon="6.66814">
        <ele>1166</ele>
        <time>2000-01-01T01:06:53.000Z</time>
      </trkpt>
      <trkpt lat="46.15656" lon="6.66869">
        <ele>1172</ele>
        <time>2000-01-01T01:07:03.000Z</time>
      </trkpt>
      <trkpt lat="46.15631" lon="6.66924">
        <ele>1185</ele>
        <time>2000-01-01T01:07:13.000Z</time>
      </trkpt>
      <trkpt lat="46.15606" lon="6.66979">
        <ele>1188</ele>
        <time>2000-01-01T01:07:23.000Z</time>
      </trkpt>
      <trkpt lat="46.15581" lon="6.67034">
        <ele>1210</ele>
        <time>2000-01-01T01:07:33.000Z</time>
      </trkpt>
      <trkpt lat="46.15555" lon="6.67089">
        <ele>1221</ele>
        <time>2000-01-01T01:07:43.000Z</time>
      </trkpt>
      <trkpt lat="46.1553" lon="6.67144">
        <ele>1223</ele>
        <time>2000-01-01T01:07:53.000Z</time>
      </trkpt>
      <trkpt lat="46.15505" lon="6.67199">
        <ele>1228</ele>
        <time>2000-01-01T01:08:03.000Z</time>
      </trkpt>
      <trkpt lat="46.1548" lon="6.67254">
        <ele>1233</ele>
        <time>2000-01-01T01:08:13.000Z</time>
      </trkpt>
      <trkpt lat="46.15455" lon="6.67309">
        <ele>1235</ele>
        <time>2000-01-01T01:08:23.000Z</time>
      </trkpt>
      <trkpt lat="46.1543" lon="6.67364">
        <ele>1241</ele>
        <time>2000-01-01T01:08:33.000Z</time>
      </trkpt>
      <trkpt lat="46.15404" lon="6.67419">
        <ele>1243</ele>
        <time>2000-01-01T01:08:43.000Z</time>
      </trkpt>
      <trkpt lat="46.15379" lon="6.67474">
        <ele>1249</ele>
        <time>2000-01-01T01:08:53.000Z</time>
      </trkpt>
      <trkpt lat="46.15354" lon="6.67529">
        <ele>1258</ele>
        <time>2000-01-01T01:09:03.000Z</time>
      </trkpt>
      <trkpt lat="46.15329" lon="6.67584">
        <ele>1265</ele>
        <time>2000-01-01T01:09:13.000Z</time>
      </trkpt>
      <trkpt lat="46.15304" lon="6.67639">
        <ele>1272</ele>
        <time>2000-01-01T01:09:23.000Z</time>
      </trkpt>
      <trkpt lat="46.15278" lon="6.67694">
        <ele>1282</ele>
        <time>2000-01-01T01:09:33.000Z</time>
      </trkpt>
      <trkpt lat="46.15253" lon="6.67749">
        <ele>1293</ele>
        <time>2000-01-01T01:09:43.000Z</time>
      </trkpt>
      <trkpt lat="46.15228" lon="6.67805">
        <ele>1308</ele>
        <time>2000-01-01T01:09:53.000Z</time>
      </trkpt>
      <trkpt lat="46.15203" lon="6.6786">
        <ele>1317</ele>
        <time>2000-01-01T01:10:03.000Z</time>
      </trkpt>
      <trkpt lat="46.15178" lon="6.67915">
        <ele>1337</ele>
        <time>2000-01-01T01:10:13.000Z</time>
      </trkpt>
      <trkpt lat="46.15153" lon="6.6797">
        <ele>1351</ele>
        <time>2000-01-01T01:10:23.000Z</time>
      </trkpt>
      <trkpt lat="46.15127" lon="6.68025">
        <ele>1370</ele>
        <time>2000-01-01T01:10:33.000Z</time>
      </trkpt>
      <trkpt lat="46.15102" lon="6.6808">
        <ele>1381</ele>
        <time>2000-01-01T01:10:43.000Z</time>
      </trkpt>
      <trkpt lat="46.15077" lon="6.68135">
        <ele>1398</ele>
        <time>2000-01-01T01:10:53.000Z</time>
      </trkpt>
      <trkpt lat="46.15052" lon="6.6819">
        <ele>1418</ele>
        <time>2000-01-01T01:11:03.000Z</time>
      </trkpt>
      <trkpt lat="46.15027" lon="6.68245">
        <ele>1432</ele>
        <time>2000-01-01T01:11:13.000Z</time>
      </trkpt>
      <trkpt lat="46.15002" lon="6.683">
        <ele>1447</ele>
        <time>2000-01-01T01:11:23.000Z</time>
      </trkpt>
      <trkpt lat="46.14976" lon="6.68355">
        <ele>1457</ele>
        <time>2000-01-01T01:11:33.000Z</time>
      </trkpt>
      <trkpt lat="46.14951" lon="6.6841">
        <ele>1461</ele>
        <time>2000-01-01T01:11:43.000Z</time>
      </trkpt>
      <trkpt lat="46.14926" lon="6.68465">
        <ele>1475</ele>
        <time>2000-01-01T01:11:53.000Z</time>
      </trkpt>
      <trkpt lat="46.14901" lon="6.6852">
        <ele>1485</ele>
        <time>2000-01-01T01:12:03.000Z</time>
      </trkpt>
      <trkpt lat="46.14876" lon="6.68575">
        <ele>1490</ele>
        <time>2000-01-01T01:12:13.000Z</time>
      </trkpt>
      <trkpt lat="46.1485" lon="6.6863">
        <ele>1500</ele>
        <time>2000-01-01T01:12:23.000Z</time>
      </trkpt>
      <trkpt lat="46.14825" lon="6.68685">
        <ele>1509</ele>
        <time>2000-01-01T01:12:33.000Z</time>
      </trkpt>
      <trkpt lat="46.148" lon="6.6874">
        <ele>1523</ele>
        <time>2000-01-01T01:12:43.000Z</time>
      </trkpt>
      <trkpt lat="46.14775" lon="6.68795">
        <ele>1530</ele>
        <time>2000-01-01T01:12:53.000Z</time>
      </trkpt>
      <trkpt lat="46.1475" lon="6.6885">
        <ele>1543</ele>
        <time>2000-01-01T01:13:03.000Z</time>
      </trkpt>
      <trkpt lat="46.14725" lon="6.68905">
        <ele>1549</ele>
        <time>2000-01-01T01:13:13.000Z</time>
      </trkpt>
      <trkpt lat="46.14699" lon="6.6896">
        <ele>1552</ele>
        <time>2000-01-01T01:13:23.000Z</time>
      </trkpt>
      <trkpt lat="46.14674" lon="6.69015">
        <ele>1557</ele>
        <time>2000-01-01T01:13:33.000Z</time>
      </trkpt>
      <trkpt lat="46.14649" lon="6.6907">
        <ele>1564</ele>
        <time>2000-01-01T01:13:43.000Z</time>
      </trkpt>
      <trkpt lat="46.14624" lon="6.69125">
        <ele>1575</ele>
        <time>2000-01-01T01:13:53.000Z</time>
      </trkpt>
      <trkpt lat="46.14599" lon="6.6918">
        <ele>1584</ele>
        <time>2000-01-01T01:14:03.000Z</time>
      </trkpt>
      <trkpt lat="46.14574" lon="6.69235">
        <ele>1588</ele>
        <time>2000-01-01T01:14:13.000Z</time>
      </trkpt>
      <trkpt lat="46.14548" lon="6.69291">
        <ele>1603</ele>
        <time>2000-01-01T01:14:23.000Z</time>
      </trkpt>
      <trkpt lat="46.14523" lon="6.69345">
        <ele>1604</ele>
        <time>2000-01-01T01:14:33.000Z</time>
      </trkpt>
      <trkpt lat="46.14488" lon="6.69423">
        <ele>1605</ele>
        <time>2000-01-01T01:14:43.000Z</time>
      </trkpt>
      <trkpt lat="46.14478" lon="6.69417">
        <ele>1612.2</ele>
        <time>2000-01-01T01:14:53.000Z</time>
      </trkpt>
      <trkpt lat="46.14487" lon="6.69369">
        <ele>1604</ele>
        <time>2000-01-01T01:15:03.000Z</time>
      </trkpt>
      <trkpt lat="46.14503" lon="6.69338">
        <ele>1604</ele>
        <time>2000-01-01T01:15:13.000Z</time>
      </trkpt>
      <trkpt lat="46.14526" lon="6.69295">
        <ele>1600</ele>
        <time>2000-01-01T01:15:23.000Z</time>
      </trkpt>
      <trkpt lat="46.14512" lon="6.6927">
        <ele>1591</ele>
        <time>2000-01-01T01:15:33.000Z</time>
      </trkpt>
      <trkpt lat="46.14518" lon="6.69247">
        <ele>1595.7</ele>
        <time>2000-01-01T01:15:43.000Z</time>
      </trkpt>
      <trkpt lat="46.14527" lon="6.69225">
        <ele>1587</ele>
        <time>2000-01-01T01:15:53.000Z</time>
      </trkpt>
      <trkpt lat="46.14526" lon="6.69211">
        <ele>1593.5</ele>
        <time>2000-01-01T01:16:03.000Z</time>
      </trkpt>
      <trkpt lat="46.14519" lon="6.69201">
        <ele>1584</ele>
        <time>2000-01-01T01:16:13.000Z</time>
      </trkpt>
      <trkpt lat="46.14491" lon="6.69236">
        <ele>1584</ele>
        <time>2000-01-01T01:16:23.000Z</time>
      </trkpt>
      <trkpt lat="46.14477" lon="6.69235">
        <ele>1587.8</ele>
        <time>2000-01-01T01:16:33.000Z</time>
      </trkpt>
      <trkpt lat="46.14471" lon="6.69245">
        <ele>1584</ele>
        <time>2000-01-01T01:16:43.000Z</time>
      </trkpt>
      <trkpt lat="46.14464" lon="6.69246">
        <ele>1587.2</ele>
        <time>2000-01-01T01:16:53.000Z</time>
      </trkpt>
      <trkpt lat="46.14475" lon="6.6922">
        <ele>1584</ele>
        <time>2000-01-01T01:17:03.000Z</time>
      </trkpt>
      <trkpt lat="46.14472" lon="6.69213">
        <ele>1583.6</ele>
        <time>2000-01-01T01:17:13.000Z</time>
      </trkpt>
      <trkpt lat="46.14458" lon="6.69228">
        <ele>1579</ele>
        <time>2000-01-01T01:17:23.000Z</time>
      </trkpt>
      <trkpt lat="46.14454" lon="6.69218">
        <ele>1581</ele>
        <time>2000-01-01T01:17:33.000Z</time>
      </trkpt>
      <trkpt lat="46.14466" lon="6.69192">
        <ele>1574</ele>
        <time>2000-01-01T01:17:43.000Z</time>
      </trkpt>
      <trkpt lat="46.14454" lon="6.69188">
        <ele>1576</ele>
        <time>2000-01-01T01:17:53.000Z</time>
      </trkpt>
      <trkpt lat="46.14419" lon="6.69199">
        <ele>1569</ele>
        <time>2000-01-01T01:18:03.000Z</time>
      </trkpt>
      <trkpt lat="46.14417" lon="6.69189">
        <ele>1570.7</ele>
        <time>2000-01-01T01:18:13.000Z</time>
      </trkpt>
      <trkpt lat="46.14433" lon="6.6916">
        <ele>1569</ele>
        <time>2000-01-01T01:18:23.000Z</time>
      </trkpt>
      <trkpt lat="46.14427" lon="6.69148">
        <ele>1562.8</ele>
        <time>2000-01-01T01:18:33.000Z</time>
      </trkpt>
      <trkpt lat="46.14393" lon="6.69178">
        <ele>1560</ele>
        <time>2000-01-01T01:18:43.000Z</time>
      </trkpt>
      <trkpt lat="46.14364" lon="6.69174">
        <ele>1556</ele>
        <time>2000-01-01T01:18:53.000Z</time>
      </trkpt>
      <trkpt lat="46.14349" lon="6.69162">
        <ele>1556</ele>
        <time>2000-01-01T01:19:03.000Z</time>
      </trkpt>
      <trkpt lat="46.14349" lon="6.69151">
        <ele>1556</ele>
        <time>2000-01-01T01:19:13.000Z</time>
      </trkpt>
      <trkpt lat="46.1435" lon="6.69139">
        <ele>1552.8</ele>
        <time>2000-01-01T01:19:23.000Z</time>
      </trkpt>
      <trkpt lat="46.14353" lon="6.69129">
        <ele>1551.7</ele>
        <time>2000-01-01T01:19:33.000Z</time>
      </trkpt>
      <trkpt lat="46.14349" lon="6.69122">
        <ele>1551</ele>
        <time>2000-01-01T01:19:43.000Z</time>
      </trkpt>
      <trkpt lat="46.14339" lon="6.6913">
        <ele>1550.3</ele>
        <time>2000-01-01T01:19:53.000Z</time>
      </trkpt>
      <trkpt lat="46.14337" lon="6.69121">
        <ele>1548.8</ele>
        <time>2000-01-01T01:20:03.000Z</time>
      </trkpt>
      <trkpt lat="46.14344" lon="6.69113">
        <ele>1551</ele>
        <time>2000-01-01T01:20:13.000Z</time>
      </trkpt>
      <trkpt lat="46.14354" lon="6.69086">
        <ele>1544</ele>
        <time>2000-01-01T01:20:23.000Z</time>
      </trkpt>
      <trkpt lat="46.1435" lon="6.69067">
        <ele>1543.4</ele>
        <time>2000-01-01T01:20:33.000Z</time>
      </trkpt>
      <trkpt lat="46.1436" lon="6.69051">
        <ele>1540</ele>
        <time>2000-01-01T01:20:43.000Z</time>
      </trkpt>
      <trkpt lat="46.14375" lon="6.68992">
        <ele>1539</ele>
        <time>2000-01-01T01:20:53.000Z</time>
      </trkpt>
      <trkpt lat="46.14367" lon="6.6899">
        <ele>1536.3</ele>
        <time>2000-01-01T01:21:03.000Z</time>
      </trkpt>
      <trkpt lat="46.14362" lon="6.69005">
        <ele>1537</ele>
        <time>2000-01-01T01:21:13.000Z</time>
      </trkpt>
      <trkpt lat="46.14357" lon="6.69001">
        <ele>1536.7</ele>
        <time>2000-01-01T01:21:23.000Z</time>
      </trkpt>
      <trkpt lat="46.14359" lon="6.68969">
        <ele>1523</ele>
        <time>2000-01-01T01:21:33.000Z</time>
      </trkpt>
      <trkpt lat="46.14364" lon="6.68937">
        <ele>1525</ele>
        <time>2000-01-01T01:21:43.000Z</time>
      </trkpt>
      <trkpt lat="46.14381" lon="6.68911">
        <ele>1522</ele>
        <time>2000-01-01T01:21:53.000Z</time>
      </trkpt>
      <trkpt lat="46.14381" lon="6.68887">
        <ele>1522.4</ele>
        <time>2000-01-01T01:22:03.000Z</time>
      </trkpt>
      <trkpt lat="46.14396" lon="6.68867">
        <ele>1520</ele>
        <time>2000-01-01T01:22:13.000Z</time>
      </trkpt>
      <trkpt lat="46.14398" lon="6.68849">
        <ele>1520.3</ele>
        <time>2000-01-01T01:22:23.000Z</time>
      </trkpt>
      <trkpt lat="46.14384" lon="6.6884">
        <ele>1520</ele>
        <time>2000-01-01T01:22:33.000Z</time>
      </trkpt>
      <trkpt lat="46.14356" lon="6.68871">
        <ele>1514</ele>
        <time>2000-01-01T01:22:43.000Z</time>
      </trkpt>
      <trkpt lat="46.14355" lon="6.68866">
        <ele>1514.7</ele>
        <time>2000-01-01T01:22:53.000Z</time>
      </trkpt>
      <trkpt lat="46.14362" lon="6.68851">
        <ele>1513.7</ele>
        <time>2000-01-01T01:23:03.000Z</time>
      </trkpt>
      <trkpt lat="46.14359" lon="6.68825">
        <ele>1505</ele>
        <time>2000-01-01T01:23:13.000Z</time>
      </trkpt>
      <trkpt lat="46.14363" lon="6.68811">
        <ele>1507.3</ele>
        <time>2000-01-01T01:23:23.000Z</time>
      </trkpt>
      <trkpt lat="46.14347" lon="6.68823">
        <ele>1505</ele>
        <time>2000-01-01T01:23:33.000Z</time>
      </trkpt>
      <trkpt lat="46.14345" lon="6.68817">
        <ele>1505.5</ele>
        <time>2000-01-01T01:23:43.000Z</time>
      </trkpt>
      <trkpt lat="46.14349" lon="6.68799">
        <ele>1503.2</ele>
        <time>2000-01-01T01:23:53.000Z</time>
      </trkpt>
      <trkpt lat="46.14347" lon="6.68795">
        <ele>1497</ele>
        <time>2000-01-01T01:24:03.000Z</time>
      </trkpt>
      <trkpt lat="46.14336" lon="6.68804">
        <ele>1502.2</ele>
        <time>2000-01-01T01:24:13.000Z</time>
      </trkpt>
      <trkpt lat="46.14334" lon="6.68796">
        <ele>1500.7</ele>
        <time>2000-01-01T01:24:23.000Z</time>
      </trkpt>
      <trkpt lat="46.14334" lon="6.68783">
        <ele>1497</ele>
        <time>2000-01-01T01:24:33.000Z</time>
      </trkpt>
      <trkpt lat="46.14328" lon="6.68783">
        <ele>1498.2</ele>
        <time>2000-01-01T01:24:43.000Z</time>
      </trkpt>
      <trkpt lat="46.14322" lon="6.68787">
        <ele>1498.1</ele>
        <time>2000-01-01T01:24:53.000Z</time>
      </trkpt>
      <trkpt lat="46.14319" lon="6.68778">
        <ele>1495</ele>
        <time>2000-01-01T01:25:03.000Z</time>
      </trkpt>
      <trkpt lat="46.14319" lon="6.68765">
        <ele>1495.1</ele>
        <time>2000-01-01T01:25:13.000Z</time>
      </trkpt>
      <trkpt lat="46.14307" lon="6.68756">
        <ele>1492</ele>
        <time>2000-01-01T01:25:23.000Z</time>
      </trkpt>
      <trkpt lat="46.14279" lon="6.68747">
        <ele>1491</ele>
        <time>2000-01-01T01:25:33.000Z</time>
      </trkpt>
      <trkpt lat="46.14252" lon="6.68741">
        <ele>1491</ele>
        <time>2000-01-01T01:25:43.000Z</time>
      </trkpt>
      <trkpt lat="46.14214" lon="6.68733">
        <ele>1488</ele>
        <time>2000-01-01T01:25:53.000Z</time>
      </trkpt>
      <trkpt lat="46.14221" lon="6.68706">
        <ele>1487</ele>
        <time>2000-01-01T01:26:03.000Z</time>
      </trkpt>
      <trkpt lat="46.14232" lon="6.68697">
        <ele>1488.3</ele>
        <time>2000-01-01T01:26:13.000Z</time>
      </trkpt>
      <trkpt lat="46.14237" lon="6.68687">
        <ele>1486</ele>
        <time>2000-01-01T01:26:23.000Z</time>
      </trkpt>
      <trkpt lat="46.14227" lon="6.68682">
        <ele>1485.4</ele>
        <time>2000-01-01T01:26:33.000Z</time>
      </trkpt>
      <trkpt lat="46.14233" lon="6.68668">
        <ele>1482</ele>
        <time>2000-01-01T01:26:43.000Z</time>
      </trkpt>
      <trkpt lat="46.1422" lon="6.68667">
        <ele>1481.5</ele>
        <time>2000-01-01T01:26:53.000Z</time>
      </trkpt>
      <trkpt lat="46.14213" lon="6.6866">
        <ele>1475</ele>
        <time>2000-01-01T01:27:03.000Z</time>
      </trkpt>
      <trkpt lat="46.14207" lon="6.68625">
        <ele>1472</ele>
        <time>2000-01-01T01:27:13.000Z</time>
      </trkpt>
      <trkpt lat="46.14216" lon="6.68604">
        <ele>1473.6</ele>
        <time>2000-01-01T01:27:23.000Z</time>
      </trkpt>
      <trkpt lat="46.14215" lon="6.6859">
        <ele>1471</ele>
        <time>2000-01-01T01:27:33.000Z</time>
      </trkpt>
      <trkpt lat="46.14231" lon="6.68581">
        <ele>1473.7</ele>
        <time>2000-01-01T01:27:43.000Z</time>
      </trkpt>
      <trkpt lat="46.14233" lon="6.68567">
        <ele>1471</ele>
        <time>2000-01-01T01:27:53.000Z</time>
      </trkpt>
      <trkpt lat="46.14237" lon="6.68559">
        <ele>1472</ele>
        <time>2000-01-01T01:28:03.000Z</time>
      </trkpt>
      <trkpt lat="46.1425" lon="6.68556">
        <ele>1470</ele>
        <time>2000-01-01T01:28:13.000Z</time>
      </trkpt>
      <trkpt lat="46.14256" lon="6.68541">
        <ele>1470.7</ele>
        <time>2000-01-01T01:28:23.000Z</time>
      </trkpt>
      <trkpt lat="46.14282" lon="6.6852">
        <ele>1461</ele>
        <time>2000-01-01T01:28:33.000Z</time>
      </trkpt>
      <trkpt lat="46.14277" lon="6.68519">
        <ele>1468.4</ele>
        <time>2000-01-01T01:28:43.000Z</time>
      </trkpt>
      <trkpt lat="46.14265" lon="6.68521">
        <ele>1467.7</ele>
        <time>2000-01-01T01:28:53.000Z</time>
      </trkpt>
      <trkpt lat="46.14264" lon="6.68513">
        <ele>1461</ele>
        <time>2000-01-01T01:29:03.000Z</time>
      </trkpt>
      <trkpt lat="46.14275" lon="6.68507">
        <ele>1466</ele>
        <time>2000-01-01T01:29:13.000Z</time>
      </trkpt>
      <trkpt lat="46.14276" lon="6.68499">
        <ele>1464.5</ele>
        <time>2000-01-01T01:29:23.000Z</time>
      </trkpt>
      <trkpt lat="46.14259" lon="6.68499">
        <ele>1462</ele>
        <time>2000-01-01T01:29:33.000Z</time>
      </trkpt>
      <trkpt lat="46.1425" lon="6.68517">
        <ele>1465.7</ele>
        <time>2000-01-01T01:29:43.000Z</time>
      </trkpt>
      <trkpt lat="46.14232" lon="6.68529">
        <ele>1460</ele>
        <time>2000-01-01T01:29:53.000Z</time>
      </trkpt>
      <trkpt lat="46.1423" lon="6.68522">
        <ele>1463.6</ele>
        <time>2000-01-01T01:30:03.000Z</time>
      </trkpt>
      <trkpt lat="46.14242" lon="6.68508">
        <ele>1459</ele>
        <time>2000-01-01T01:30:13.000Z</time>
      </trkpt>
      <trkpt lat="46.14242" lon="6.68495">
        <ele>1459.1</ele>
        <time>2000-01-01T01:30:23.000Z</time>
      </trkpt>
      <trkpt lat="46.14226" lon="6.6851">
        <ele>1455</ele>
        <time>2000-01-01T01:30:33.000Z</time>
      </trkpt>
      <trkpt lat="46.14222" lon="6.68504">
        <ele>1457.1</ele>
        <time>2000-01-01T01:30:43.000Z</time>
      </trkpt>
      <trkpt lat="46.14233" lon="6.68484">
        <ele>1453</ele>
        <time>2000-01-01T01:30:53.000Z</time>
      </trkpt>
      <trkpt lat="46.14235" lon="6.68468">
        <ele>1451.3</ele>
        <time>2000-01-01T01:31:03.000Z</time>
      </trkpt>
      <trkpt lat="46.14242" lon="6.6845">
        <ele>1445</ele>
        <time>2000-01-01T01:31:13.000Z</time>
      </trkpt>
      <trkpt lat="46.1426" lon="6.68448">
        <ele>1437</ele>
        <time>2000-01-01T01:31:23.000Z</time>
      </trkpt>
      <trkpt lat="46.14265" lon="6.68439">
        <ele>1445.3</ele>
        <time>2000-01-01T01:31:33.000Z</time>
      </trkpt>
      <trkpt lat="46.14224" lon="6.68411">
        <ele>1437</ele>
        <time>2000-01-01T01:31:43.000Z</time>
      </trkpt>
      <trkpt lat="46.14241" lon="6.68382">
        <ele>1429</ele>
        <time>2000-01-01T01:31:53.000Z</time>
      </trkpt>
      <trkpt lat="46.14253" lon="6.68371">
        <ele>1427.5</ele>
        <time>2000-01-01T01:32:03.000Z</time>
      </trkpt>
      <trkpt lat="46.14257" lon="6.68374">
        <ele>1427</ele>
        <time>2000-01-01T01:32:13.000Z</time>
      </trkpt>
      <trkpt lat="46.14261" lon="6.68385">
        <ele>1430.7</ele>
        <time>2000-01-01T01:32:23.000Z</time>
      </trkpt>
      <trkpt lat="46.14267" lon="6.68383">
        <ele>1430</ele>
        <time>2000-01-01T01:32:33.000Z</time>
      </trkpt>
      <trkpt lat="46.14265" lon="6.68361">
        <ele>1423</ele>
        <time>2000-01-01T01:32:43.000Z</time>
      </trkpt>
      <trkpt lat="46.14256" lon="6.68349">
        <ele>1422.8</ele>
        <time>2000-01-01T01:32:53.000Z</time>
      </trkpt>
      <trkpt lat="46.14203" lon="6.68349">
        <ele>1417</ele>
        <time>2000-01-01T01:33:03.000Z</time>
      </trkpt>
      <trkpt lat="46.14164" lon="6.68341">
        <ele>1415</ele>
        <time>2000-01-01T01:33:13.000Z</time>
      </trkpt>
      <trkpt lat="46.14131" lon="6.68322">
        <ele>1405</ele>
        <time>2000-01-01T01:33:23.000Z</time>
      </trkpt>
      <trkpt lat="46.14107" lon="6.68325">
        <ele>1401</ele>
        <time>2000-01-01T01:33:33.000Z</time>
      </trkpt>
      <trkpt lat="46.14081" lon="6.68327">
        <ele>1398</ele>
        <time>2000-01-01T01:33:43.000Z</time>
      </trkpt>
      <trkpt lat="46.14077" lon="6.68312">
        <ele>1397.1</ele>
        <time>2000-01-01T01:33:53.000Z</time>
      </trkpt>
      <trkpt lat="46.14122" lon="6.68283">
        <ele>1392</ele>
        <time>2000-01-01T01:34:03.000Z</time>
      </trkpt>
      <trkpt lat="46.14156" lon="6.6825">
        <ele>1386</ele>
        <time>2000-01-01T01:34:13.000Z</time>
      </trkpt>
      <trkpt lat="46.14162" lon="6.68211">
        <ele>1380</ele>
        <time>2000-01-01T01:34:23.000Z</time>
      </trkpt>
      <trkpt lat="46.14195" lon="6.68179">
        <ele>1373</ele>
        <time>2000-01-01T01:34:33.000Z</time>
      </trkpt>
      <trkpt lat="46.1422" lon="6.68159">
        <ele>1371</ele>
        <time>2000-01-01T01:34:43.000Z</time>
      </trkpt>
      <trkpt lat="46.14262" lon="6.68126">
        <ele>1367</ele>
        <time>2000-01-01T01:34:53.000Z</time>
      </trkpt>
      <trkpt lat="46.14286" lon="6.68141">
        <ele>1367</ele>
        <time>2000-01-01T01:35:03.000Z</time>
      </trkpt>
      <trkpt lat="46.14294" lon="6.68109">
        <ele>1361</ele>
        <time>2000-01-01T01:35:13.000Z</time>
      </trkpt>
      <trkpt lat="46.14296" lon="6.68083">
        <ele>1366.6</ele>
        <time>2000-01-01T01:35:23.000Z</time>
      </trkpt>
      <trkpt lat="46.14314" lon="6.6806">
        <ele>1361</ele>
        <time>2000-01-01T01:35:33.000Z</time>
      </trkpt>
      <trkpt lat="46.14337" lon="6.68047">
        <ele>1358</ele>
        <time>2000-01-01T01:35:43.000Z</time>
      </trkpt>
      <trkpt lat="46.1436" lon="6.68036">
        <ele>1357</ele>
        <time>2000-01-01T01:35:53.000Z</time>
      </trkpt>
      <trkpt lat="46.14382" lon="6.68025">
        <ele>1358</ele>
        <time>2000-01-01T01:36:03.000Z</time>
      </trkpt>
      <trkpt lat="46.14406" lon="6.68017">
        <ele>1357</ele>
        <time>2000-01-01T01:36:13.000Z</time>
      </trkpt>
      <trkpt lat="46.14435" lon="6.68008">
        <ele>1356</ele>
        <time>2000-01-01T01:36:23.000Z</time>
      </trkpt>
      <trkpt lat="46.14459" lon="6.67995">
        <ele>1356</ele>
        <time>2000-01-01T01:36:33.000Z</time>
      </trkpt>
      <trkpt lat="46.14487" lon="6.6798">
        <ele>1351</ele>
        <time>2000-01-01T01:36:43.000Z</time>
      </trkpt>
      <trkpt lat="46.14516" lon="6.67958">
        <ele>1349</ele>
        <time>2000-01-01T01:36:53.000Z</time>
      </trkpt>
      <trkpt lat="46.14545" lon="6.67935">
        <ele>1347</ele>
        <time>2000-01-01T01:37:03.000Z</time>
      </trkpt>
      <trkpt lat="46.14586" lon="6.67904">
        <ele>1345</ele>
        <time>2000-01-01T01:37:13.000Z</time>
      </trkpt>
      <trkpt lat="46.14606" lon="6.67879">
        <ele>1345</ele>
        <time>2000-01-01T01:37:23.000Z</time>
      </trkpt>
      <trkpt lat="46.14635" lon="6.67844">
        <ele>1342</ele>
        <time>2000-01-01T01:37:33.000Z</time>
      </trkpt>
      <trkpt lat="46.14651" lon="6.67817">
        <ele>1338</ele>
        <time>2000-01-01T01:37:43.000Z</time>
      </trkpt>
      <trkpt lat="46.14668" lon="6.67788">
        <ele>1331</ele>
        <time>2000-01-01T01:37:53.000Z</time>
      </trkpt>
      <trkpt lat="46.14694" lon="6.67759">
        <ele>1329</ele>
        <time>2000-01-01T01:38:03.000Z</time>
      </trkpt>
      <trkpt lat="46.14716" lon="6.6776">
        <ele>1328</ele>
        <time>2000-01-01T01:38:13.000Z</time>
      </trkpt>
      <trkpt lat="46.14719" lon="6.67736">
        <ele>1325.3</ele>
        <time>2000-01-01T01:38:23.000Z</time>
      </trkpt>
      <trkpt lat="46.14727" lon="6.67724">
        <ele>1321</ele>
        <time>2000-01-01T01:38:33.000Z</time>
      </trkpt>
      <trkpt lat="46.14746" lon="6.67727">
        <ele>1321</ele>
        <time>2000-01-01T01:38:43.000Z</time>
      </trkpt>
      <trkpt lat="46.14753" lon="6.67702">
        <ele>1317.8</ele>
        <time>2000-01-01T01:38:53.000Z</time>
      </trkpt>
      <trkpt lat="46.14768" lon="6.67697">
        <ele>1314</ele>
        <time>2000-01-01T01:39:03.000Z</time>
      </trkpt>
      <trkpt lat="46.1479" lon="6.67663">
        <ele>1313</ele>
        <time>2000-01-01T01:39:13.000Z</time>
      </trkpt>
      <trkpt lat="46.148" lon="6.67663">
        <ele>1307.3</ele>
        <time>2000-01-01T01:39:23.000Z</time>
      </trkpt>
      <trkpt lat="46.14811" lon="6.67671">
        <ele>1312</ele>
        <time>2000-01-01T01:39:33.000Z</time>
      </trkpt>
      <trkpt lat="46.14832" lon="6.67666">
        <ele>1312</ele>
        <time>2000-01-01T01:39:43.000Z</time>
      </trkpt>
      <trkpt lat="46.14852" lon="6.67645">
        <ele>1310</ele>
        <time>2000-01-01T01:39:53.000Z</time>
      </trkpt>
      <trkpt lat="46.14872" lon="6.67623">
        <ele>1304</ele>
        <time>2000-01-01T01:40:03.000Z</time>
      </trkpt>
      <trkpt lat="46.14888" lon="6.67586">
        <ele>1301</ele>
        <time>2000-01-01T01:40:13.000Z</time>
      </trkpt>
      <trkpt lat="46.1491" lon="6.67567">
        <ele>1301</ele>
        <time>2000-01-01T01:40:23.000Z</time>
      </trkpt>
      <trkpt lat="46.14936" lon="6.6755">
        <ele>1296</ele>
        <time>2000-01-01T01:40:33.000Z</time>
      </trkpt>
      <trkpt lat="46.14974" lon="6.67526">
        <ele>1296</ele>
        <time>2000-01-01T01:40:43.000Z</time>
      </trkpt>
      <trkpt lat="46.15" lon="6.67534">
        <ele>1294</ele>
        <time>2000-01-01T01:40:53.000Z</time>
      </trkpt>
      <trkpt lat="46.15037" lon="6.67545">
        <ele>1292</ele>
        <time>2000-01-01T01:41:03.000Z</time>
      </trkpt>
      <trkpt lat="46.1507" lon="6.67543">
        <ele>1287</ele>
        <time>2000-01-01T01:41:13.000Z</time>
      </trkpt>
      <trkpt lat="46.15101" lon="6.67552">
        <ele>1287</ele>
        <time>2000-01-01T01:41:23.000Z</time>
      </trkpt>
      <trkpt lat="46.15103" lon="6.67543">
        <ele>1281.5</ele>
        <time>2000-01-01T01:41:33.000Z</time>
      </trkpt>
      <trkpt lat="46.15086" lon="6.67534">
        <ele>1287</ele>
        <time>2000-01-01T01:41:43.000Z</time>
      </trkpt>
      <trkpt lat="46.15084" lon="6.67523">
        <ele>1279.9</ele>
        <time>2000-01-01T01:41:53.000Z</time>
      </trkpt>
      <trkpt lat="46.15113" lon="6.67515">
        <ele>1278</ele>
        <time>2000-01-01T01:42:03.000Z</time>
      </trkpt>
      <trkpt lat="46.15139" lon="6.6752">
        <ele>1276</ele>
        <time>2000-01-01T01:42:13.000Z</time>
      </trkpt>
      <trkpt lat="46.1517" lon="6.67526">
        <ele>1274</ele>
        <time>2000-01-01T01:42:23.000Z</time>
      </trkpt>
      <trkpt lat="46.15196" lon="6.67527">
        <ele>1269</ele>
        <time>2000-01-01T01:42:33.000Z</time>
      </trkpt>
      <trkpt lat="46.15229" lon="6.67528">
        <ele>1266</ele>
        <time>2000-01-01T01:42:43.000Z</time>
      </trkpt>
      <trkpt lat="46.15263" lon="6.67523">
        <ele>1263</ele>
        <time>2000-01-01T01:42:53.000Z</time>
      </trkpt>
      <trkpt lat="46.15297" lon="6.67517">
        <ele>1260</ele>
        <time>2000-01-01T01:43:03.000Z</time>
      </trkpt>
      <trkpt lat="46.15356" lon="6.67507">
        <ele>1258</ele>
        <time>2000-01-01T01:43:13.000Z</time>
      </trkpt>
      <trkpt lat="46.15361" lon="6.67494">
        <ele>1253.4</ele>
        <time>2000-01-01T01:43:23.000Z</time>
      </trkpt>
      <trkpt lat="46.15387" lon="6.67471">
        <ele>1249</ele>
        <time>2000-01-01T01:43:33.000Z</time>
      </trkpt>
      <trkpt lat="46.154" lon="6.67456">
        <ele>1248.4</ele>
        <time>2000-01-01T01:43:43.000Z</time>
      </trkpt>
      <trkpt lat="46.15399" lon="6.67437">
        <ele>1247</ele>
        <time>2000-01-01T01:43:53.000Z</time>
      </trkpt>
      <trkpt lat="46.154" lon="6.67432">
        <ele>1246.7</ele>
        <time>2000-01-01T01:44:03.000Z</time>
      </trkpt>
      <trkpt lat="46.15405" lon="6.67429">
        <ele>1246.3</ele>
        <time>2000-01-01T01:44:13.000Z</time>
      </trkpt>
      <trkpt lat="46.15414" lon="6.67429">
        <ele>1246</ele>
        <time>2000-01-01T01:44:23.000Z</time>
      </trkpt>
      <trkpt lat="46.15414" lon="6.67419">
        <ele>1243</ele>
        <time>2000-01-01T01:44:33.000Z</time>
      </trkpt>
      <trkpt lat="46.15409" lon="6.67412">
        <ele>1244.9</ele>
        <time>2000-01-01T01:44:43.000Z</time>
      </trkpt>
      <trkpt lat="46.15407" lon="6.67404">
        <ele>1244.4</ele>
        <time>2000-01-01T01:44:53.000Z</time>
      </trkpt>
      <trkpt lat="46.15428" lon="6.67384">
        <ele>1241</ele>
        <time>2000-01-01T01:45:03.000Z</time>
      </trkpt>
      <trkpt lat="46.15446" lon="6.67362">
        <ele>1239</ele>
        <time>2000-01-01T01:45:13.000Z</time>
      </trkpt>
      <trkpt lat="46.15465" lon="6.67339">
        <ele>1235</ele>
        <time>2000-01-01T01:45:23.000Z</time>
      </trkpt>
      <trkpt lat="46.1548" lon="6.67302">
        <ele>1234</ele>
        <time>2000-01-01T01:45:33.000Z</time>
      </trkpt>
      <trkpt lat="46.15505" lon="6.67238">
        <ele>1229</ele>
        <time>2000-01-01T01:45:43.000Z</time>
      </trkpt>
      <trkpt lat="46.15517" lon="6.67203">
        <ele>1228</ele>
        <time>2000-01-01T01:45:53.000Z</time>
      </trkpt>
      <trkpt lat="46.15533" lon="6.67154">
        <ele>1226</ele>
        <time>2000-01-01T01:46:03.000Z</time>
      </trkpt>
      <trkpt lat="46.15515" lon="6.67122">
        <ele>1225</ele>
        <time>2000-01-01T01:46:13.000Z</time>
      </trkpt>
      <trkpt lat="46.15485" lon="6.67071">
        <ele>1224</ele>
        <time>2000-01-01T01:46:23.000Z</time>
      </trkpt>
      <trkpt lat="46.15469" lon="6.6704">
        <ele>1221</ele>
        <time>2000-01-01T01:46:33.000Z</time>
      </trkpt>
      <trkpt lat="46.15448" lon="6.66999">
        <ele>1217</ele>
        <time>2000-01-01T01:46:43.000Z</time>
      </trkpt>
      <trkpt lat="46.1543" lon="6.66969">
        <ele>1212</ele>
        <time>2000-01-01T01:46:53.000Z</time>
      </trkpt>
      <trkpt lat="46.15405" lon="6.66927">
        <ele>1208</ele>
        <time>2000-01-01T01:47:03.000Z</time>
      </trkpt>
      <trkpt lat="46.15412" lon="6.6692">
        <ele>1208.9</ele>
        <time>2000-01-01T01:47:13.000Z</time>
      </trkpt>
      <trkpt lat="46.15494" lon="6.66947">
        <ele>1208</ele>
        <time>2000-01-01T01:47:23.000Z</time>
      </trkpt>
      <trkpt lat="46.15522" lon="6.66962">
        <ele>1201</ele>
        <time>2000-01-01T01:47:33.000Z</time>
      </trkpt>
      <trkpt lat="46.15571" lon="6.66988">
        <ele>1198</ele>
        <time>2000-01-01T01:47:43.000Z</time>
      </trkpt>
      <trkpt lat="46.15574" lon="6.66983">
        <ele>1201.1</ele>
        <time>2000-01-01T01:47:53.000Z</time>
      </trkpt>
      <trkpt lat="46.15538" lon="6.6694">
        <ele>1197</ele>
        <time>2000-01-01T01:48:03.000Z</time>
      </trkpt>
      <trkpt lat="46.15532" lon="6.66936">
        <ele>1195.9</ele>
        <time>2000-01-01T01:48:13.000Z</time>
      </trkpt>
      <trkpt lat="46.15533" lon="6.66929">
        <ele>1194.5</ele>
        <time>2000-01-01T01:48:23.000Z</time>
      </trkpt>
      <trkpt lat="46.15585" lon="6.66933">
        <ele>1189</ele>
        <time>2000-01-01T01:48:33.000Z</time>
      </trkpt>
      <trkpt lat="46.15602" lon="6.6692">
        <ele>1185</ele>
        <time>2000-01-01T01:48:43.000Z</time>
      </trkpt>
      <trkpt lat="46.15614" lon="6.66884">
        <ele>1182</ele>
        <time>2000-01-01T01:48:53.000Z</time>
      </trkpt>
      <trkpt lat="46.15641" lon="6.66882">
        <ele>1178</ele>
        <time>2000-01-01T01:49:03.000Z</time>
      </trkpt>
      <trkpt lat="46.15643" lon="6.66871">
        <ele>1174.7</ele>
        <time>2000-01-01T01:49:13.000Z</time>
      </trkpt>
      <trkpt lat="46.15637" lon="6.66846">
        <ele>1174</ele>
        <time>2000-01-01T01:49:23.000Z</time>
      </trkpt>
      <trkpt lat="46.15639" lon="6.66824">
        <ele>1172.3</ele>
        <time>2000-01-01T01:49:33.000Z</time>
      </trkpt>
      <trkpt lat="46.15644" lon="6.66812">
        <ele>1170</ele>
        <time>2000-01-01T01:49:43.000Z</time>
      </trkpt>
      <trkpt lat="46.15671" lon="6.66807">
        <ele>1166</ele>
        <time>2000-01-01T01:49:53.000Z</time>
      </trkpt>
      <trkpt lat="46.15681" lon="6.66814">
        <ele>1166</ele>
        <time>2000-01-01T01:50:03.000Z</time>
      </trkpt>
    </trkseg>
  </trk>
</gpx>